^^
B2 Weather Station Historical Data
Daily Summary for November 16, 2018 Units:  English    Metric   Both
Daily Weekly Monthly Yearly Custom
  High: Low: Average:
Temperature: 42.0 °F 25.2 °F 34.5 °F
Dew Point: 36.5 °F 23.2 °F 30.7 °F
Humidity: 93% 79% 86%
Wind Speed: 17.3mph 0.0mph 7.7mph
Wind Gust: 11.1mph - -
Wind- - West
Pressure: 30.21 in 29.85 in -
Precipitation: 0.00 in    
Historical Graphs
 
 
Tabular Data for November 16, 2018
Time Temperature Dew Point Pressure Wind Wind Speed Wind Gust Humidity Rainfall Rate (Hourly) solar
00:04 25.3 °F 23.3 °F 29.92 in South 4.6 mph 3.5 mph 92% 0.00 in 0.00 W/m2
00:09 25.3 °F 23.3 °F 29.92 in South 4.6 mph 2.4 mph 92% 0.00 in 0.00 W/m2
00:14 25.3 °F 23.3 °F 29.92 in South 6.9 mph 3.8 mph 92% 0.00 in 0.00 W/m2
00:19 25.3 °F 23.3 °F 29.92 in South 5.8 mph 3.0 mph 92% 0.00 in 0.00 W/m2
00:24 25.2 °F 23.2 °F 29.91 in South 6.0 mph 3.6 mph 92% 0.00 in 0.00 W/m2
00:29 25.2 °F 23.2 °F 29.91 in South 6.0 mph 4.3 mph 92% 0.00 in 0.00 W/m2
00:34 25.2 °F 23.2 °F 29.91 in South 6.9 mph 3.8 mph 92% 0.00 in 0.00 W/m2
00:39 25.3 °F 23.6 °F 29.91 in SW 8.1 mph 5.4 mph 93% 0.00 in 0.00 W/m2
00:44 25.4 °F 23.7 °F 29.91 in SSE 10.4 mph 2.8 mph 93% 0.00 in 0.00 W/m2
00:50 25.4 °F 23.7 °F 29.91 in South 8.1 mph 5.4 mph 93% 0.00 in 0.00 W/m2
00:54 25.5 °F 23.8 °F 29.90 in SSW 9.2 mph 5.3 mph 93% 0.00 in 0.00 W/m2
00:59 25.5 °F 23.8 °F 29.90 in SSW 10.4 mph 3.9 mph 93% 0.00 in 0.00 W/m2
01:04 25.6 °F 23.9 °F 29.90 in South 6.9 mph 5.7 mph 93% 0.00 in 0.00 W/m2
01:10 25.6 °F 23.6 °F 29.89 in SSW 6.9 mph 3.7 mph 92% 0.00 in 0.00 W/m2
01:14 25.6 °F 23.6 °F 29.89 in South 10.4 mph 5.8 mph 92% 0.00 in 0.00 W/m2
01:20 25.6 °F 23.6 °F 29.89 in South 8.1 mph 4.7 mph 92% 0.00 in 0.00 W/m2
01:24 25.5 °F 23.5 °F 29.89 in South 6.0 mph 3.0 mph 92% 0.00 in 0.00 W/m2
01:29 25.6 °F 23.6 °F 29.89 in South 9.2 mph 6.3 mph 92% 0.00 in 0.00 W/m2
01:35 25.6 °F 23.6 °F 29.88 in South 9.2 mph 5.2 mph 92% 0.00 in 0.00 W/m2
01:39 25.6 °F 23.6 °F 29.88 in SSW 6.9 mph 3.4 mph 92% 0.00 in 0.00 W/m2
01:45 25.6 °F 23.6 °F 29.88 in SSW 9.2 mph 6.0 mph 92% 0.00 in 0.00 W/m2
01:49 25.7 °F 23.7 °F 29.88 in SSW 5.8 mph 3.4 mph 92% 0.00 in 0.00 W/m2
01:54 25.8 °F 23.8 °F 29.88 in SSW 10.4 mph 4.7 mph 92% 0.00 in 0.00 W/m2
01:59 25.9 °F 23.9 °F 29.87 in South 8.1 mph 4.9 mph 92% 0.00 in 0.00 W/m2
02:04 26.1 °F 24.1 °F 29.87 in South 7.0 mph 5.4 mph 92% 0.00 in 0.00 W/m2
02:09 26.2 °F 24.2 °F 29.87 in South 8.1 mph 4.0 mph 92% 0.00 in 0.00 W/m2
02:14 26.2 °F 24.2 °F 29.87 in South 8.1 mph 4.0 mph 92% 0.00 in 0.00 W/m2
02:19 26.4 °F 24.4 °F 29.87 in South 6.9 mph 4.3 mph 92% 0.00 in 0.00 W/m2
02:24 26.6 °F 24.6 °F 29.87 in SSW 10.4 mph 3.0 mph 92% 0.00 in 0.00 W/m2
02:29 27.0 °F 25.0 °F 29.87 in SSW 11.5 mph 5.6 mph 92% 0.00 in 0.00 W/m2
02:35 27.3 °F 25.3 °F 29.86 in SSW 11.0 mph 4.2 mph 92% 0.00 in 0.00 W/m2
02:39 27.6 °F 25.6 °F 29.86 in WSW 12.7 mph 6.5 mph 92% 0.00 in 0.00 W/m2
02:44 27.8 °F 25.8 °F 29.87 in South 13.8 mph 7.5 mph 92% 0.00 in 0.00 W/m2
02:49 27.8 °F 25.5 °F 29.86 in SSW 9.2 mph 7.7 mph 91% 0.00 in 0.00 W/m2
02:54 27.9 °F 25.6 °F 29.86 in SSW 13.8 mph 5.8 mph 91% 0.00 in 0.00 W/m2
02:59 28.0 °F 25.7 °F 29.86 in SSW 11.5 mph 7.1 mph 91% 0.00 in 0.00 W/m2
03:04 28.1 °F 25.8 °F 29.86 in SSW 13.8 mph 10.3 mph 91% 0.00 in 0.00 W/m2
03:09 28.1 °F 25.8 °F 29.86 in SSW 8.1 mph 6.0 mph 91% 0.00 in 0.00 W/m2
03:14 28.1 °F 25.8 °F 29.85 in SSW 17.3 mph 11.1 mph 91% 0.00 in 0.00 W/m2
03:19 28.2 °F 25.9 °F 29.85 in SSW 9.2 mph 5.4 mph 91% 0.00 in 0.00 W/m2
03:24 28.3 °F 26.0 °F 29.85 in South 8.1 mph 7.1 mph 91% 0.00 in 0.00 W/m2
03:29 28.3 °F 25.7 °F 29.85 in South 16.0 mph 8.6 mph 90% 0.00 in 0.00 W/m2
03:34 28.4 °F 25.8 °F 29.85 in SSW 11.5 mph 6.5 mph 90% 0.00 in 0.00 W/m2
03:39 28.3 °F 25.7 °F 29.85 in SSW 13.8 mph 6.2 mph 90% 0.00 in 0.00 W/m2
03:44 28.3 °F 25.7 °F 29.85 in SSE 11.5 mph 7.5 mph 90% 0.00 in 0.00 W/m2
03:50 28.4 °F 25.8 °F 29.85 in SSE 11.5 mph 6.8 mph 90% 0.00 in 0.00 W/m2
03:55 28.4 °F 25.8 °F 29.85 in SW 10.4 mph 5.4 mph 90% 0.00 in 0.00 W/m2
03:59 28.5 °F 25.9 °F 29.85 in SE 9.2 mph 5.6 mph 90% 0.00 in 0.00 W/m2
04:04 28.6 °F 26.0 °F 29.86 in SSW 8.1 mph 6.0 mph 90% 0.00 in 0.00 W/m2
04:09 28.8 °F 26.2 °F 29.86 in SSW 13.8 mph 6.3 mph 90% 0.00 in 0.00 W/m2
04:14 29.0 °F 26.4 °F 29.86 in SSW 11.5 mph 6.1 mph 90% 0.00 in 0.00 W/m2
04:19 29.2 °F 26.6 °F 29.86 in North 11.0 mph 9.3 mph 90% 0.00 in 0.00 W/m2
04:24 29.5 °F 26.7 °F 29.86 in SW 10.4 mph 4.7 mph 89% 0.00 in 0.00 W/m2
04:29 29.6 °F 26.8 °F 29.86 in SW 10.0 mph 6.4 mph 89% 0.00 in 0.00 W/m2
04:35 29.7 °F 26.6 °F 29.86 in SSW 8.1 mph 5.6 mph 88% 0.00 in 0.00 W/m2
04:39 29.8 °F 26.7 °F 29.86 in SSW 10.4 mph 5.4 mph 88% 0.00 in 0.00 W/m2
04:44 29.9 °F 26.8 °F 29.86 in SW 8.1 mph 6.2 mph 88% 0.00 in 0.00 W/m2
04:49 29.9 °F 26.8 °F 29.87 in North 10.4 mph 3.7 mph 88% 0.00 in 0.00 W/m2
04:54 30.1 °F 27.0 °F 29.87 in SW 9.2 mph 6.6 mph 88% 0.00 in 0.00 W/m2
04:59 30.2 °F 27.1 °F 29.87 in North 12.7 mph 4.7 mph 88% 0.00 in 0.00 W/m2
05:05 30.4 °F 27.3 °F 29.87 in North 9.2 mph 5.3 mph 88% 0.00 in 0.00 W/m2
05:09 30.5 °F 27.1 °F 29.87 in SSW 6.9 mph 4.4 mph 87% 0.00 in 0.00 W/m2
05:15 30.5 °F 27.1 °F 29.88 in SW 10.4 mph 6.3 mph 87% 0.00 in 0.00 W/m2
05:19 30.6 °F 27.2 °F 29.88 in SW 8.1 mph 4.2 mph 87% 0.00 in 0.00 W/m2
05:24 30.8 °F 27.7 °F 29.89 in SW 9.2 mph 4.9 mph 88% 0.00 in 0.00 W/m2
05:29 31.0 °F 27.9 °F 29.89 in WSW 8.1 mph 7.2 mph 88% 0.00 in 0.00 W/m2
05:34 31.2 °F 28.1 °F 29.89 in SW 10.4 mph 6.1 mph 88% 0.00 in 0.00 W/m2
05:40 31.4 °F 28.3 °F 29.89 in WSW 10.4 mph 7.0 mph 88% 0.00 in 0.00 W/m2
05:45 31.5 °F 28.1 °F 29.89 in North 10.4 mph 5.7 mph 87% 0.00 in 0.00 W/m2
05:49 31.6 °F 28.2 °F 29.89 in WSW 11.5 mph 4.7 mph 87% 0.00 in 0.00 W/m2
05:54 31.6 °F 28.2 °F 29.89 in North 10.4 mph 6.1 mph 87% 0.00 in 0.00 W/m2
05:59 31.6 °F 28.2 °F 29.89 in North 9.2 mph 5.3 mph 87% 0.00 in 0.00 W/m2
06:04 31.6 °F 28.2 °F 29.89 in SW 11.5 mph 7.0 mph 87% 0.00 in 0.00 W/m2
06:09 31.6 °F 28.2 °F 29.90 in SW 8.1 mph 5.0 mph 87% 0.00 in 0.00 W/m2
06:14 31.6 °F 28.2 °F 29.90 in SW 8.1 mph 4.2 mph 87% 0.00 in 0.00 W/m2
06:20 31.7 °F 28.6 °F 29.90 in WSW 8.1 mph 5.7 mph 88% 0.00 in 0.00 W/m2
06:24 31.7 °F 28.6 °F 29.91 in WSW 5.8 mph 5.8 mph 88% 0.00 in 0.00 W/m2
06:30 31.9 °F 28.8 °F 29.90 in WSW 9.2 mph 6.2 mph 88% 0.00 in 0.00 W/m2
06:34 32.0 °F 28.8 °F 29.90 in SW 8.1 mph 6.0 mph 88% 0.00 in 0.00 W/m2
06:39 32.1 °F 28.9 °F 29.90 in WSW 8.1 mph 5.2 mph 88% 0.00 in 0.00 W/m2
06:44 32.3 °F 29.1 °F 29.90 in SW 8.1 mph 4.0 mph 88% 0.00 in 0.00 W/m2
06:50 32.5 °F 29.3 °F 29.91 in WSW 8.1 mph 5.8 mph 88% 0.00 in 0.00 W/m2
06:54 32.6 °F 29.4 °F 29.91 in SW 10.4 mph 5.6 mph 88% 0.00 in 5.00 W/m2
06:59 32.8 °F 29.6 °F 29.91 in North 9.2 mph 6.3 mph 88% 0.00 in 5.00 W/m2
07:05 32.9 °F 29.7 °F 29.92 in WSW 9.2 mph 5.0 mph 88% 0.00 in 7.00 W/m2
07:09 33.1 °F 30.2 °F 29.92 in SW 10.4 mph 6.9 mph 89% 0.00 in 7.00 W/m2
07:14 33.4 °F 30.5 °F 29.93 in WSW 11.5 mph 6.8 mph 89% 0.00 in 11.00 W/m2
07:19 33.6 °F 30.7 °F 29.93 in SW 8.1 mph 4.4 mph 89% 0.00 in 14.00 W/m2
07:24 33.9 °F 31.0 °F 29.94 in WSW 7.0 mph 5.4 mph 89% 0.00 in 18.00 W/m2
07:29 34.1 °F 31.2 °F 29.94 in North 10.4 mph 5.3 mph 89% 0.00 in 23.00 W/m2
07:34 34.4 °F 31.5 °F 29.94 in SW 9.2 mph 5.3 mph 89% 0.00 in 28.00 W/m2
07:39 34.6 °F 31.7 °F 29.94 in West 9.2 mph 5.8 mph 89% 0.00 in 35.00 W/m2
07:44 34.8 °F 31.9 °F 29.94 in West 10.4 mph 8.4 mph 89% 0.00 in 44.00 W/m2
07:49 34.9 °F 31.7 °F 29.94 in WSW 11.5 mph 6.6 mph 88% 0.00 in 49.00 W/m2
07:55 34.9 °F 31.7 °F 29.95 in WSW 11.5 mph 6.6 mph 88% 0.00 in 51.00 W/m2
08:00 35.0 °F 31.8 °F 29.95 in WSW 11.5 mph 6.1 mph 88% 0.00 in 46.00 W/m2
08:05 35.0 °F 32.1 °F 29.95 in WSW 12.7 mph 7.1 mph 89% 0.00 in 54.00 W/m2
08:09 35.1 °F 32.2 °F 29.96 in North 11.5 mph 6.2 mph 89% 0.00 in 70.00 W/m2
08:14 35.1 °F 32.2 °F 29.96 in WSW 11.5 mph 7.7 mph 89% 0.00 in 74.00 W/m2
08:19 35.1 °F 32.2 °F 29.96 in WSW 8.1 mph 5.6 mph 89% 0.00 in 88.00 W/m2
08:24 35.2 °F 32.3 °F 29.96 in WSW 9.2 mph 6.6 mph 89% 0.00 in 104.00 W/m2
08:30 35.3 °F 32.4 °F 29.96 in North 9.2 mph 4.7 mph 89% 0.00 in 111.00 W/m2
08:34 35.5 °F 32.6 °F 29.96 in WSW 5.8 mph 4.1 mph 89% 0.00 in 118.00 W/m2
08:39 35.7 °F 32.8 °F 29.96 in WSW 9.2 mph 7.0 mph 89% 0.00 in 197.00 W/m2
08:44 36.0 °F 33.1 °F 29.97 in SW 6.9 mph 3.1 mph 89% 0.00 in 236.00 W/m2
08:50 36.3 °F 33.4 °F 29.97 in West 5.8 mph 3.1 mph 89% 0.00 in 295.00 W/m2
08:54 36.8 °F 33.9 °F 29.97 in WSW 8.1 mph 5.0 mph 89% 0.00 in 294.00 W/m2
08:59 37.3 °F 34.4 °F 29.97 in North 5.0 mph 4.2 mph 89% 0.00 in 367.00 W/m2
09:05 37.4 °F 34.2 °F 29.97 in SW 6.9 mph 4.6 mph 88% 0.00 in 102.00 W/m2
09:09 37.5 °F 34.3 °F 29.97 in West 11.5 mph 6.1 mph 88% 0.00 in 339.00 W/m2
09:14 37.7 °F 34.5 °F 29.97 in West 8.1 mph 6.1 mph 88% 0.00 in 350.00 W/m2
09:19 37.9 °F 34.4 °F 29.97 in WNW 10.4 mph 5.8 mph 87% 0.00 in 360.00 W/m2
09:24 38.0 °F 34.5 °F 29.97 in North 10.4 mph 7.0 mph 87% 0.00 in 371.00 W/m2
09:30 38.3 °F 34.8 °F 29.97 in WNW 8.1 mph 3.3 mph 87% 0.00 in 378.00 W/m2
09:34 38.6 °F 34.8 °F 29.97 in North 11.5 mph 5.3 mph 86% 0.00 in 388.00 W/m2
09:39 38.8 °F 35.0 °F 29.98 in West 11.5 mph 6.8 mph 86% 0.00 in 397.00 W/m2
09:44 38.9 °F 35.1 °F 29.98 in West 9.2 mph 5.3 mph 86% 0.00 in 434.00 W/m2
09:49 39.1 °F 35.0 °F 29.98 in West 9.2 mph 5.2 mph 85% 0.00 in 334.00 W/m2
09:55 39.3 °F 35.2 °F 29.98 in WSW 11.5 mph 5.7 mph 85% 0.00 in 473.00 W/m2
09:59 39.5 °F 35.4 °F 29.98 in WNW 10.4 mph 5.7 mph 85% 0.00 in 431.00 W/m2
10:05 39.7 °F 35.6 °F 29.98 in North 13.0 mph 6.3 mph 85% 0.00 in 446.00 W/m2
10:09 39.8 °F 35.4 °F 29.99 in West 11.5 mph 7.3 mph 84% 0.00 in 436.00 W/m2
10:14 40.0 °F 35.6 °F 29.99 in WNW 12.7 mph 7.3 mph 84% 0.00 in 448.00 W/m2
10:19 40.2 °F 35.8 °F 29.99 in North 11.0 mph 6.6 mph 84% 0.00 in 455.00 W/m2
10:25 40.4 °F 35.6 °F 30.00 in North 17.3 mph 9.6 mph 83% 0.00 in 454.00 W/m2
10:29 40.5 °F 35.7 °F 30.00 in WNW 13.8 mph 6.8 mph 83% 0.00 in 468.00 W/m2
10:34 40.9 °F 36.1 °F 30.00 in WSW 9.2 mph 6.1 mph 83% 0.00 in 475.00 W/m2
10:40 40.9 °F 35.8 °F 30.00 in WNW 12.7 mph 6.5 mph 82% 0.00 in 494.00 W/m2
10:45 41.0 °F 36.2 °F 30.00 in NW 12.0 mph 5.8 mph 83% 0.00 in 476.00 W/m2
10:49 41.3 °F 36.2 °F 30.00 in North 13.8 mph 8.6 mph 82% 0.00 in 483.00 W/m2
10:54 41.4 °F 36.3 °F 30.00 in North 11.5 mph 7.6 mph 82% 0.00 in 545.00 W/m2
10:59 41.6 °F 36.5 °F 30.00 in West 10.0 mph 6.7 mph 82% 0.00 in 283.00 W/m2
11:04 41.7 °F 36.3 °F 30.01 in West 11.5 mph 4.6 mph 81% 0.00 in 617.00 W/m2
11:09 42.0 °F 36.3 °F 30.01 in North 8.1 mph 4.0 mph 80% 0.00 in 229.00 W/m2
11:14 42.0 °F 36.0 °F 30.01 in North 11.5 mph 7.3 mph 79% 0.00 in 297.00 W/m2
11:19 41.7 °F 35.7 °F 30.01 in West 9.2 mph 6.3 mph 79% 0.00 in 248.00 W/m2
11:24 41.5 °F 35.5 °F 30.01 in NW 11.5 mph 6.2 mph 79% 0.00 in 204.00 W/m2
11:29 41.3 °F 35.6 °F 30.01 in WNW 11.5 mph 5.4 mph 80% 0.00 in 200.00 W/m2
11:34 41.1 °F 35.4 °F 30.01 in North 16.1 mph 9.7 mph 80% 0.00 in 207.00 W/m2
11:39 40.9 °F 35.5 °F 30.01 in NW 6.9 mph 4.6 mph 81% 0.00 in 155.00 W/m2
11:44 40.8 °F 35.1 °F 30.01 in North 10.4 mph 7.4 mph 80% 0.00 in 137.00 W/m2
11:49 40.7 °F 35.3 °F 30.01 in SW 13.8 mph 4.6 mph 81% 0.00 in 123.00 W/m2
11:55 40.6 °F 35.2 °F 30.01 in WNW 11.5 mph 4.4 mph 81% 0.00 in 113.00 W/m2
11:59 40.6 °F 35.2 °F 30.01 in North 10.4 mph 5.8 mph 81% 0.00 in 118.00 W/m2
12:04 40.4 °F 35.0 °F 30.01 in WSW 11.5 mph 4.1 mph 81% 0.00 in 113.00 W/m2
12:09 40.2 °F 34.8 °F 30.01 in North 11.5 mph 7.0 mph 81% 0.00 in 113.00 W/m2
12:14 40.1 °F 35.0 °F 30.01 in West 9.2 mph 5.1 mph 82% 0.00 in 114.00 W/m2
12:19 40.0 °F 34.9 °F 30.01 in WSW 12.7 mph 9.4 mph 82% 0.00 in 116.00 W/m2
12:24 39.9 °F 34.9 °F 30.01 in North 8.1 mph 5.3 mph 82% 0.00 in 113.00 W/m2
12:29 39.8 °F 34.8 °F 30.02 in West 10.4 mph 5.0 mph 82% 0.00 in 114.00 W/m2
12:34 39.8 °F 34.8 °F 30.02 in North 11.0 mph 7.7 mph 82% 0.00 in 84.00 W/m2
12:39 39.8 °F 34.8 °F 30.02 in North 6.0 mph 6.1 mph 82% 0.00 in 76.00 W/m2
12:44 39.6 °F 34.6 °F 30.02 in North 15.0 mph 6.0 mph 82% 0.00 in 88.00 W/m2
12:49 39.5 °F 34.5 °F 30.02 in North 8.1 mph 5.3 mph 82% 0.00 in 91.00 W/m2
12:54 39.6 °F 34.9 °F 30.03 in WSW 4.0 mph 3.2 mph 83% 0.00 in 97.00 W/m2
12:59 39.5 °F 34.8 °F 30.04 in NW 8.1 mph 4.8 mph 83% 0.00 in 88.00 W/m2
13:04 39.6 °F 34.9 °F 30.04 in North 8.1 mph 5.2 mph 83% 0.00 in 93.00 W/m2
13:09 39.6 °F 34.6 °F 30.04 in North 6.9 mph 3.2 mph 82% 0.00 in 98.00 W/m2
13:14 39.7 °F 34.7 °F 30.04 in North 11.5 mph 3.6 mph 82% 0.00 in 102.00 W/m2
13:20 39.7 °F 34.3 °F 30.04 in SW 8.1 mph 3.7 mph 81% 0.00 in 93.00 W/m2
13:24 39.7 °F 34.3 °F 30.04 in WSW 4.6 mph 2.7 mph 81% 0.00 in 84.00 W/m2
13:29 39.7 °F 34.3 °F 30.04 in NW 11.5 mph 7.4 mph 81% 0.00 in 83.00 W/m2
13:34 39.7 °F 34.3 °F 30.04 in NNW 11.5 mph 7.8 mph 81% 0.00 in 90.00 W/m2
13:39 39.8 °F 34.4 °F 30.04 in SW 10.4 mph 3.6 mph 81% 0.00 in 88.00 W/m2
13:44 39.8 °F 34.1 °F 30.04 in North 12.7 mph 5.3 mph 80% 0.00 in 93.00 W/m2
13:49 39.8 °F 34.1 °F 30.04 in West 8.1 mph 3.7 mph 80% 0.00 in 105.00 W/m2
13:54 39.8 °F 34.4 °F 30.05 in West 6.0 mph 5.5 mph 81% 0.00 in 93.00 W/m2
13:59 39.9 °F 34.5 °F 30.05 in North 6.9 mph 5.0 mph 81% 0.00 in 79.00 W/m2
14:04 39.9 °F 34.5 °F 30.05 in WNW 3.5 mph 1.9 mph 81% 0.00 in 74.00 W/m2
14:09 39.8 °F 34.1 °F 30.06 in WNW 9.2 mph 3.7 mph 80% 0.00 in 60.00 W/m2
14:14 39.7 °F 34.0 °F 30.05 in North 12.7 mph 7.4 mph 80% 0.00 in 62.00 W/m2
14:19 39.5 °F 33.8 °F 30.05 in North 10.4 mph 8.5 mph 80% 0.00 in 54.00 W/m2
14:25 39.5 °F 33.8 °F 30.06 in NW 13.8 mph 5.1 mph 80% 0.00 in 54.00 W/m2
14:29 39.3 °F 33.6 °F 30.06 in NNW 15.0 mph 7.8 mph 80% 0.00 in 54.00 W/m2
14:34 39.2 °F 33.5 °F 30.06 in WNW 9.2 mph 3.8 mph 80% 0.00 in 54.00 W/m2
14:39 39.2 °F 33.5 °F 30.06 in WNW 4.6 mph 3.4 mph 80% 0.00 in 56.00 W/m2
14:44 39.2 °F 33.5 °F 30.06 in WNW 11.5 mph 6.6 mph 80% 0.00 in 62.00 W/m2
14:49 39.2 °F 33.5 °F 30.06 in WNW 8.1 mph 4.2 mph 80% 0.00 in 51.00 W/m2
14:54 39.1 °F 33.1 °F 30.07 in North 9.2 mph 4.9 mph 79% 0.00 in 53.00 W/m2
14:59 38.9 °F 32.9 °F 30.07 in North 11.5 mph 5.1 mph 79% 0.00 in 42.00 W/m2
15:04 38.8 °F 32.8 °F 30.07 in WNW 8.1 mph 5.0 mph 79% 0.00 in 39.00 W/m2
15:09 38.6 °F 33.0 °F 30.07 in WNW 9.2 mph 6.7 mph 80% 0.00 in 35.00 W/m2
15:14 38.6 °F 33.0 °F 30.07 in WNW 11.5 mph 6.0 mph 80% 0.00 in 37.00 W/m2
15:19 38.5 °F 32.9 °F 30.08 in North 11.5 mph 3.7 mph 80% 0.00 in 30.00 W/m2
15:24 38.4 °F 32.8 °F 30.08 in WNW 9.2 mph 4.4 mph 80% 0.00 in 25.00 W/m2
15:29 38.4 °F 33.1 °F 30.07 in WNW 6.9 mph 3.7 mph 81% 0.00 in 21.00 W/m2
15:34 38.3 °F 33.0 °F 30.08 in West 10.0 mph 5.9 mph 81% 0.00 in 23.00 W/m2
15:39 38.2 °F 32.9 °F 30.08 in WNW 9.2 mph 4.6 mph 81% 0.00 in 19.00 W/m2
15:44 38.2 °F 33.2 °F 30.08 in North 6.0 mph 5.1 mph 82% 0.00 in 18.00 W/m2
15:49 38.1 °F 33.1 °F 30.08 in West 5.8 mph 3.6 mph 82% 0.00 in 18.00 W/m2
15:54 38.0 °F 33.0 °F 30.08 in NW 6.9 mph 3.4 mph 82% 0.00 in 18.00 W/m2
15:59 37.9 °F 32.9 °F 30.08 in WNW 5.8 mph 1.2 mph 82% 0.00 in 16.00 W/m2
16:04 37.8 °F 32.8 °F 30.08 in WNW 9.2 mph 4.8 mph 82% 0.00 in 12.00 W/m2
16:09 37.7 °F 32.7 °F 30.08 in North 5.8 mph 2.9 mph 82% 0.00 in 9.00 W/m2
16:15 37.6 °F 32.6 °F 30.08 in North 12.7 mph 5.5 mph 82% 0.00 in 9.00 W/m2
16:20 37.4 °F 32.4 °F 30.09 in West 6.0 mph 4.9 mph 82% 0.00 in 5.00 W/m2
16:25 37.4 °F 32.4 °F 30.09 in North 5.8 mph 2.5 mph 82% 0.00 in 0.00 W/m2
16:29 37.3 °F 32.3 °F 30.09 in West 5.8 mph 4.6 mph 82% 0.00 in 0.00 W/m2
16:35 37.1 °F 32.1 °F 30.09 in WNW 6.9 mph 3.7 mph 82% 0.00 in 0.00 W/m2
16:39 37.0 °F 32.0 °F 30.09 in North 3.5 mph 1.7 mph 82% 0.00 in 0.00 W/m2
16:44 37.0 °F 32.3 °F 30.09 in North 4.6 mph 3.0 mph 83% 0.00 in 0.00 W/m2
16:49 36.9 °F 32.2 °F 30.10 in North 6.0 mph 2.2 mph 83% 0.00 in 0.00 W/m2
16:54 36.8 °F 32.1 °F 30.10 in WNW 4.6 mph 4.2 mph 83% 0.00 in 0.00 W/m2
16:59 36.8 °F 32.1 °F 30.10 in West 9.2 mph 4.7 mph 83% 0.00 in 0.00 W/m2
17:04 36.8 °F 32.1 °F 30.10 in West 10.4 mph 5.7 mph 83% 0.00 in 0.00 W/m2
17:09 36.7 °F 32.0 °F 30.10 in North 5.8 mph 2.5 mph 83% 0.00 in 0.00 W/m2
17:15 36.6 °F 31.9 °F 30.10 in West 7.0 mph 4.2 mph 83% 0.00 in 0.00 W/m2
17:19 36.5 °F 31.8 °F 30.10 in WNW 8.1 mph 2.5 mph 83% 0.00 in 0.00 W/m2
17:24 36.4 °F 32.0 °F 30.10 in West 8.1 mph 4.2 mph 84% 0.00 in 0.00 W/m2
17:29 36.2 °F 31.5 °F 30.10 in North 10.4 mph 4.4 mph 83% 0.00 in 0.00 W/m2
17:34 36.1 °F 31.4 °F 30.11 in North 5.8 mph 2.5 mph 83% 0.00 in 0.00 W/m2
17:39 36.0 °F 31.3 °F 30.11 in West 4.6 mph 3.1 mph 83% 0.00 in 0.00 W/m2
17:44 36.0 °F 31.6 °F 30.11 in WSW 3.5 mph 3.2 mph 84% 0.00 in 0.00 W/m2
17:50 35.9 °F 31.5 °F 30.11 in West 6.9 mph 3.0 mph 84% 0.00 in 0.00 W/m2
17:55 35.8 °F 31.4 °F 30.11 in West 3.5 mph 2.5 mph 84% 0.00 in 0.00 W/m2
17:59 35.7 °F 31.3 °F 30.11 in North 4.6 mph 2.5 mph 84% 0.00 in 0.00 W/m2
18:05 35.6 °F 31.2 °F 30.11 in West 3.5 mph 2.8 mph 84% 0.00 in 0.00 W/m2
18:09 35.6 °F 31.2 °F 30.11 in North 6.9 mph 3.0 mph 84% 0.00 in 0.00 W/m2
18:15 35.6 °F 31.2 °F 30.12 in WSW 5.8 mph 3.5 mph 84% 0.00 in 0.00 W/m2
18:20 35.5 °F 31.4 °F 30.12 in WSW 3.5 mph 1.5 mph 85% 0.00 in 0.00 W/m2
18:24 35.5 °F 31.4 °F 30.11 in West 4.6 mph 1.7 mph 85% 0.00 in 0.00 W/m2
18:29 35.5 °F 31.4 °F 30.12 in WNW 2.3 mph 0.7 mph 85% 0.00 in 0.00 W/m2
18:34 35.5 °F 31.4 °F 30.12 in West 3.5 mph 0.4 mph 85% 0.00 in 0.00 W/m2
18:39 35.4 °F 31.3 °F 30.12 in NW 3.5 mph 1.6 mph 85% 0.00 in 0.00 W/m2
18:44 35.4 °F 31.3 °F 30.12 in North 4.6 mph 3.5 mph 85% 0.00 in 0.00 W/m2
18:50 35.3 °F 31.2 °F 30.12 in WNW 3.5 mph 1.8 mph 85% 0.00 in 0.00 W/m2
18:54 35.3 °F 31.2 °F 30.13 in West 2.3 mph 0.4 mph 85% 0.00 in 0.00 W/m2
18:59 35.2 °F 31.1 °F 30.13 in WNW 1.2 mph   85% 0.00 in 0.00 W/m2
19:04 35.2 °F 31.1 °F 30.12 in WNW 3.5 mph 0.5 mph 85% 0.00 in 0.00 W/m2
19:09 35.2 °F 31.1 °F 30.12 in North 5.8 mph 1.8 mph 85% 0.00 in 0.00 W/m2
19:14 35.2 °F 31.1 °F 30.13 in North 3.0 mph 1.6 mph 85% 0.00 in 0.00 W/m2
19:19 35.2 °F 31.1 °F 30.14 in SW 3.5 mph 3.3 mph 85% 0.00 in 0.00 W/m2
19:24 35.2 °F 31.4 °F 30.14 in WSW 5.8 mph 1.6 mph 86% 0.00 in 0.00 W/m2
19:29 35.2 °F 31.4 °F 30.15 in WSW 5.8 mph 4.4 mph 86% 0.00 in 0.00 W/m2
19:34 35.2 °F 31.4 °F 30.14 in WSW 3.5 mph 2.1 mph 86% 0.00 in 0.00 W/m2
19:39 35.1 °F 31.3 °F 30.14 in WSW 9.2 mph 3.9 mph 86% 0.00 in 0.00 W/m2
19:44 35.0 °F 31.2 °F 30.14 in SW 6.0 mph 3.9 mph 86% 0.00 in 0.00 W/m2
19:49 35.0 °F 31.2 °F 30.15 in SW 8.1 mph 5.1 mph 86% 0.00 in 0.00 W/m2
19:54 34.9 °F 31.1 °F 30.15 in SW 5.8 mph 1.0 mph 86% 0.00 in 0.00 W/m2
19:59 34.9 °F 31.1 °F 30.14 in WSW 6.9 mph 3.3 mph 86% 0.00 in 0.00 W/m2
20:04 34.8 °F 31.0 °F 30.14 in WSW 8.1 mph 3.1 mph 86% 0.00 in 0.00 W/m2
20:09 34.7 °F 30.9 °F 30.13 in WSW 5.8 mph 2.1 mph 86% 0.00 in 0.00 W/m2
20:14 34.6 °F 31.1 °F 30.14 in WNW 6.9 mph 3.2 mph 87% 0.00 in 0.00 W/m2
20:20 34.5 °F 30.7 °F 30.13 in WSW 4.6 mph 3.6 mph 86% 0.00 in 0.00 W/m2
20:25 34.4 °F 30.9 °F 30.14 in North 4.0 mph 2.4 mph 87% 0.00 in 0.00 W/m2
20:30 34.3 °F 30.8 °F 30.14 in WSW 4.0 mph 2.6 mph 87% 0.00 in 0.00 W/m2
20:34 34.3 °F 30.8 °F 30.14 in SW 4.6 mph 3.5 mph 87% 0.00 in 0.00 W/m2
20:40 34.3 °F 30.5 °F 30.15 in West 3.5 mph 2.1 mph 86% 0.00 in 0.00 W/m2
20:45 34.3 °F 30.5 °F 30.14 in West 2.3 mph 0.6 mph 86% 0.00 in 0.00 W/m2
20:50 34.3 °F 30.8 °F 30.15 in West 3.5 mph 1.3 mph 87% 0.00 in 0.00 W/m2
20:54 34.3 °F 30.8 °F 30.15 in West 1.0 mph 0.1 mph 87% 0.00 in 0.00 W/m2
20:59 34.3 °F 30.8 °F 30.15 in WSW 2.3 mph 0.1 mph 87% 0.00 in 0.00 W/m2
21:04 34.3 °F 30.8 °F 30.15 in Calm     87% 0.00 in 0.00 W/m2
21:09 34.3 °F 30.8 °F 30.15 in Calm     87% 0.00 in 0.00 W/m2
21:15 34.3 °F 30.8 °F 30.15 in WSW 3.5 mph 1.1 mph 87% 0.00 in 0.00 W/m2
21:19 34.3 °F 30.8 °F 30.15 in WSW 3.5 mph 0.7 mph 87% 0.00 in 0.00 W/m2
21:24 34.3 °F 30.8 °F 30.16 in WSW 2.3 mph 0.9 mph 87% 0.00 in 0.00 W/m2
21:29 34.3 °F 30.8 °F 30.16 in SW 2.3 mph   87% 0.00 in 0.00 W/m2
21:35 34.4 °F 30.9 °F 30.16 in SW 4.0 mph 2.5 mph 87% 0.00 in 0.00 W/m2
21:40 34.4 °F 30.6 °F 30.16 in SW 2.3 mph 1.2 mph 86% 0.00 in 0.00 W/m2
21:44 34.4 °F 30.6 °F 30.17 in SW 1.2 mph   86% 0.00 in 0.00 W/m2
21:50 34.4 °F 30.6 °F 30.16 in Calm     86% 0.00 in 0.00 W/m2
21:54 34.4 °F 30.6 °F 30.17 in SW 2.3 mph 0.2 mph 86% 0.00 in 0.00 W/m2
21:59 34.3 °F 30.5 °F 30.17 in SW 1.2 mph 0.1 mph 86% 0.00 in 0.00 W/m2
22:04 34.3 °F 30.5 °F 30.17 in SW 2.0 mph 1.0 mph 86% 0.00 in 0.00 W/m2
22:09 34.4 °F 30.6 °F 30.17 in SW 2.0 mph 0.3 mph 86% 0.00 in 0.00 W/m2
22:14 34.3 °F 30.5 °F 30.18 in SW 1.2 mph   86% 0.00 in 0.00 W/m2
22:19 34.3 °F 30.5 °F 30.18 in SW 2.3 mph 0.6 mph 86% 0.00 in 0.00 W/m2
22:24 34.3 °F 30.5 °F 30.18 in SW 2.3 mph 0.3 mph 86% 0.00 in 0.00 W/m2
22:29 34.3 °F 30.5 °F 30.18 in Calm     86% 0.00 in 0.00 W/m2
22:34 34.3 °F 30.5 °F 30.18 in SW 1.2 mph 0.1 mph 86% 0.00 in 0.00 W/m2
22:40 34.3 °F 30.5 °F 30.18 in West 2.3 mph 0.4 mph 86% 0.00 in 0.00 W/m2
22:44 34.3 °F 30.5 °F 30.18 in Calm     86% 0.00 in 0.00 W/m2
22:50 34.3 °F 30.8 °F 30.18 in Calm     87% 0.00 in 0.00 W/m2
22:54 34.3 °F 30.8 °F 30.18 in West 2.3 mph 0.1 mph 87% 0.00 in 0.00 W/m2
22:59 34.3 °F 30.8 °F 30.19 in Calm     87% 0.00 in 0.00 W/m2
23:04 34.2 °F 30.7 °F 30.19 in Calm     87% 0.00 in 0.00 W/m2
23:09 34.2 °F 30.7 °F 30.19 in WNW 1.2 mph 0.5 mph 87% 0.00 in 0.00 W/m2
23:14 34.2 °F 30.7 °F 30.20 in WNW 1.2 mph 0.3 mph 87% 0.00 in 0.00 W/m2
23:20 34.2 °F 31.0 °F 30.20 in Calm     88% 0.00 in 0.00 W/m2
23:25 34.1 °F 30.9 °F 30.20 in WNW 2.3 mph 0.4 mph 88% 0.00 in 0.00 W/m2
23:29 34.0 °F 30.8 °F 30.20 in Calm   0.5 mph 88% 0.00 in 0.00 W/m2
23:35 34.0 °F 30.8 °F 30.20 in Calm     88% 0.00 in 0.00 W/m2
23:39 34.0 °F 30.8 °F 30.21 in Calm     88% 0.00 in 0.00 W/m2
23:44 33.9 °F 30.7 °F 30.21 in North 3.5 mph 0.2 mph 88% 0.00 in 0.00 W/m2
23:49 33.9 °F 30.7 °F 30.20 in WNW 3.5 mph 0.1 mph 88% 0.00 in 0.00 W/m2
23:55 33.9 °F 30.7 °F 30.21 in WNW 2.3 mph 0.2 mph 88% 0.00 in 0.00 W/m2
23:59 33.9 °F 30.7 °F 30.21 in Calm     88% 0.00 in 0.00 W/m2
Bourbonnais, Illinois, USA
Compliments of Weather Underground - 4 mb